Time;durP1;ratioP1;P1;durP2;ratioP2;P2;SDS_P1;SDS_P2;PMS_P1;PMS_P2;Temp;Humidity;BMP_temperature;BMP_pressure;BME280_temperature;BME280_humidity;BME280_pressure;Samples;Min_cycle;Max_cycle;Signal;HPM_P1;HPM_P2
2023/03/26 00:01:51;;;;;;;6.95;0.82;;;;;;;7.85;100.00;100142.38;6274468;28;20183;-68
2023/03/26 00:04:52;;;;;;;6.40;1.02;;;;;;;7.85;100.00;100143.22;6274480;28;20076;-68
2023/03/26 00:07:53;;;;;;;7.05;1.10;;;;;;;7.89;100.00;100149.13;6273855;28;20435;-69
2023/03/26 00:10:55;;;;;;;8.15;1.08;;;;;;;7.85;100.00;100151.06;6278075;28;20045;-69
2023/03/26 00:13:57;;;;;;;0.85;0.40;;;;;;;7.89;100.00;100154.38;6262562;28;20061;-69
2023/03/26 00:17:00;;;;;;;10.93;1.23;;;;;;;7.84;100.00;100159.00;6278236;28;20064;-68
2023/03/26 00:20:02;;;;;;;3.92;0.70;;;;;;;7.80;100.00;100157.47;6277355;28;20056;-68
2023/03/26 00:23:04;;;;;;;3.25;0.70;;;;;;;7.79;100.00;100156.63;6278567;28;20052;-68
2023/03/26 00:26:09;;;;;;;3.80;0.60;;;;;;;7.84;100.00;100170.31;6278911;28;20045;-68
2023/03/26 00:29:12;;;;;;;2.35;0.77;;;;;;;7.83;100.00;100173.84;6273796;28;20056;-69
2023/03/26 00:32:15;;;;;;;7.88;2.00;;;;;;;7.82;100.00;100174.78;6278305;28;20048;-69
2023/03/26 00:35:17;;;;;;;4.03;0.88;;;;;;;7.86;100.00;100185.94;6278478;28;20441;-68
2023/03/26 00:38:18;;;;;;;2.22;0.70;;;;;;;7.85;100.00;100173.75;6278711;28;20048;-68
2023/03/26 00:41:25;;;;;;;1.90;0.70;;;;;;;7.83;100.00;100184.31;6278315;28;20068;-70
2023/03/26 00:44:27;;;;;;;6.43;0.90;;;;;;;7.83;100.00;100180.84;6278862;28;20055;-69
2023/03/26 00:47:30;;;;;;;4.35;1.02;;;;;;;7.83;100.00;100175.63;6277982;28;20056;-68
2023/03/26 00:50:31;;;;;;;0.55;0.32;;;;;;;7.88;100.00;100177.06;6278187;28;20060;-68
2023/03/26 00:53:33;;;;;;;4.10;0.60;;;;;;;7.82;100.00;100182.63;6278454;28;20045;-68
2023/03/26 00:56:34;;;;;;;2.15;0.90;;;;;;;7.86;100.00;100178.09;6277571;28;20052;-68
2023/03/26 00:59:36;;;;;;;1.75;0.70;;;;;;;7.84;100.00;100177.31;6278200;28;20041;-68
2023/03/26 01:02:39;;;;;;;1.60;0.60;;;;;;;7.81;100.00;100182.69;6271931;28;20045;-69
2023/03/26 01:05:45;;;;;;;8.40;0.63;;;;;;;7.77;100.00;100195.09;6274997;28;20056;-68
2023/03/26 01:08:48;;;;;;;5.07;1.05;;;;;;;7.72;100.00;100189.25;6268670;28;20055;-68
2023/03/26 01:11:50;;;;;;;1.52;0.30;;;;;;;7.79;100.00;100197.63;6264673;28;20060;-68
2023/03/26 01:14:55;;;;;;;2.13;0.52;;;;;;;7.66;100.00;100196.56;6275429;28;20049;-68
2023/03/26 01:17:58;;;;;;;3.47;0.77;;;;;;;7.72;100.00;100193.63;6277433;28;20076;-68
2023/03/26 01:21:06;;;;;;;4.32;1.45;;;;;;;7.70;100.00;100193.69;6276643;28;20331;-68
2023/03/26 01:24:10;;;;;;;8.20;0.50;;;;;;;7.63;100.00;100203.63;6277906;28;20056;-68
2023/03/26 01:27:20;;;;;;;2.45;0.77;;;;;;;7.54;100.00;100209.31;6277307;28;20053;-68
2023/03/26 01:30:25;;;;;;;;;;;;;;;7.65;100.00;100214.00;6277894;28;20421;-69
2023/03/26 01:33:35;;;;;;;2.33;1.13;;;;;;;7.57;100.00;100205.69;6277467;28;19921;-68
2023/03/26 01:36:45;;;;;;;0.95;0.55;;;;;;;7.54;100.00;100198.88;6277219;28;20139;-68
2023/03/26 01:39:55;;;;;;;2.58;0.65;;;;;;;7.55;100.00;100199.72;6277063;28;20068;-68
2023/03/26 01:43:03;;;;;;;6.35;1.17;;;;;;;7.61;100.00;100202.84;6276959;28;20349;-68
2023/03/26 01:46:08;;;;;;;5.22;1.42;;;;;;;7.49;100.00;100200.00;6276980;28;20120;-69
2023/03/26 01:49:11;;;;;;;3.08;0.82;;;;;;;7.33;100.00;100207.75;6276569;28;20044;-68
2023/03/26 01:52:16;;;;;;;9.88;1.02;;;;;;;7.33;100.00;100205.13;6276851;28;20418;-69
2023/03/26 01:55:19;;;;;;;2.25;0.93;;;;;;;7.33;100.00;100203.38;6276419;28;20048;-68
2023/03/26 01:58:30;;;;;;;4.85;1.13;;;;;;;7.38;100.00;100203.16;6276834;28;20049;-68
2023/03/26 02:01:43;;;;;;;4.47;1.05;;;;;;;7.32;100.00;100203.47;6276489;28;20052;-68
2023/03/26 02:04:52;;;;;;;2.83;0.52;;;;;;;7.29;100.00;100200.97;6276469;28;20452;-68
2023/03/26 02:07:59;;;;;;;3.97;0.70;;;;;;;7.19;100.00;100199.75;6276540;28;20052;-68
2023/03/26 02:11:04;;;;;;;5.93;0.50;;;;;;;7.24;100.00;100197.75;6276113;28;20045;-68
2023/03/26 02:14:06;;;;;;;1.25;0.50;;;;;;;7.24;100.00;100203.81;6277031;28;20041;-69
2023/03/26 02:17:09;;;;;;;1.05;0.60;;;;;;;7.15;100.00;100188.56;6276159;28;20045;-68
2023/03/26 02:20:14;;;;;;;3.35;0.70;;;;;;;7.24;100.00;100195.13;6266049;28;20048;-68
2023/03/26 02:23:15;;;;;;;4.20;0.88;;;;;;;7.32;100.00;100193.00;6271843;28;20433;-68
2023/03/26 02:26:20;;;;;;;0.75;0.43;;;;;;;7.32;100.00;100185.16;6273289;28;20045;-68
2023/03/26 02:29:21;;;;;;;2.33;0.50;;;;;;;7.31;100.00;100186.94;6276017;28;20505;-68
2023/03/26 02:32:22;;;;;;;1.33;0.73;;;;;;;7.33;100.00;100181.63;6275099;28;20045;-68
2023/03/26 02:35:23;;;;;;;2.88;0.70;;;;;;;7.29;100.00;100182.69;6275935;28;20045;-68
2023/03/26 02:38:25;;;;;;;3.70;0.82;;;;;;;7.38;100.00;100182.22;6275715;28;20049;-68
2023/03/26 02:41:28;;;;;;;0.98;0.60;;;;;;;7.50;100.00;100181.63;6275577;28;20044;-68
2023/03/26 02:44:29;;;;;;;8.85;0.65;;;;;;;7.45;100.00;100173.19;6275910;28;20472;-68
2023/03/26 02:47:32;;;;;;;7.13;0.68;;;;;;;7.43;100.00;100171.56;6275564;28;20041;-69
2023/03/26 02:50:35;;;;;;;6.85;0.70;;;;;;;7.35;100.00;100171.91;6275311;28;20124;-69
2023/03/26 02:53:38;;;;;;;2.70;0.80;;;;;;;7.36;100.00;100174.47;6275000;28;20116;-68
2023/03/26 02:56:40;;;;;;;2.03;0.80;;;;;;;7.40;100.00;100171.69;6262710;28;20350;-68
2023/03/26 02:59:45;;;;;;;4.00;1.42;;;;;;;7.41;100.00;100163.78;6266773;28;20042;-68
2023/03/26 03:02:47;;;;;;;1.95;0.63;;;;;;;7.35;100.00;100162.31;6267493;28;20052;-68
2023/03/26 03:05:48;;;;;;;4.47;1.20;;;;;;;7.27;100.00;100166.25;6269441;28;20047;-68
2023/03/26 03:08:52;;;;;;;5.85;0.95;;;;;;;7.29;100.00;100160.00;6272775;28;20101;-68
2023/03/26 03:11:55;;;;;;;1.48;0.40;;;;;;;7.21;100.00;100156.06;6268194;28;20323;-68
2023/03/26 03:14:56;;;;;;;0.43;0.40;;;;;;;7.17;100.00;100154.53;6268949;28;20052;-68
2023/03/26 03:17:58;;;;;;;2.95;0.77;;;;;;;7.15;100.00;100153.78;6274575;28;20045;-68
2023/03/26 03:20:59;;;;;;;2.03;0.90;;;;;;;7.10;100.00;100147.00;6274579;28;20048;-68
2023/03/26 03:24:00;;;;;;;1.00;0.60;;;;;;;7.11;100.00;100148.69;6275203;28;20134;-68
2023/03/26 03:27:03;;;;;;;4.65;0.65;;;;;;;7.10;100.00;100144.38;6274772;28;20364;-68
2023/03/26 03:30:06;;;;;;;2.28;0.80;;;;;;;7.07;100.00;100143.69;6274759;28;20052;-68
2023/03/26 03:33:08;;;;;;;5.90;0.82;;;;;;;7.09;100.00;100145.31;6274908;28;20045;-68
2023/03/26 03:36:10;;;;;;;5.82;0.63;;;;;;;7.11;100.00;100140.00;6274880;28;20048;-68
2023/03/26 03:39:11;;;;;;;1.55;0.70;;;;;;;7.01;100.00;100146.59;6274417;28;20052;-68
2023/03/26 03:42:14;;;;;;;3.72;0.65;;;;;;;7.00;100.00;100139.69;6274885;28;20057;-68
2023/03/26 03:45:15;;;;;;;2.03;0.70;;;;;;;7.02;100.00;100141.28;6279251;28;20047;-68
2023/03/26 03:48:17;;;;;;;2.40;0.60;;;;;;;7.07;100.00;100138.44;6279435;28;20056;-68
2023/03/26 03:51:19;;;;;;;2.40;0.47;;;;;;;6.96;100.00;100141.59;6279407;28;20398;-68
2023/03/26 03:54:20;;;;;;;3.90;0.43;;;;;;;6.87;100.00;100142.03;6279562;28;20053;-68
2023/03/26 03:57:23;;;;;;;2.78;0.47;;;;;;;6.83;100.00;100154.38;6268189;28;20053;-68
2023/03/26 04:00:24;;;;;;;9.52;1.20;;;;;;;6.75;100.00;100156.50;6263344;28;20044;-68
2023/03/26 04:03:27;;;;;;;7.18;1.08;;;;;;;6.77;100.00;100154.69;6256490;28;20499;-68
2023/03/26 04:06:29;;;;;;;1.75;0.50;;;;;;;6.77;100.00;100154.69;6265365;28;20416;-68
2023/03/26 04:09:30;;;;;;;1.65;0.60;;;;;;;6.72;100.00;100153.19;6264654;28;20045;-68
2023/03/26 04:12:33;;;;;;;2.17;0.50;;;;;;;6.74;100.00;100152.22;6273977;28;20045;-68
2023/03/26 04:15:35;;;;;;;3.30;0.55;;;;;;;6.68;100.00;100157.72;6274428;28;20045;-68
2023/03/26 04:18:37;;;;;;;3.83;0.45;;;;;;;6.69;100.00;100155.97;6268550;28;20433;-68
2023/03/26 04:21:41;;;;;;;0.63;0.52;;;;;;;6.70;100.00;100152.44;6260357;28;20119;-68
2023/03/26 04:24:42;;;;;;;1.50;0.50;;;;;;;6.81;100.00;100144.91;6259456;28;20045;-68
2023/03/26 04:27:46;;;;;;;4.32;0.77;;;;;;;6.83;100.00;100146.56;6261471;28;20556;-68
2023/03/26 04:30:52;;;;;;;1.45;0.65;;;;;;;6.83;100.00;100150.94;6265669;28;20040;-68
2023/03/26 04:33:54;;;;;;;2.03;1.25;;;;;;;6.72;100.00;100142.75;6270647;28;20060;-68
2023/03/26 04:36:57;;;;;;;5.95;1.27;;;;;;;6.73;100.00;100136.63;6271889;28;20075;-68
2023/03/26 04:39:59;;;;;;;2.42;1.33;;;;;;;6.75;100.00;100142.63;6260955;28;20052;-68
2023/03/26 04:43:02;;;;;;;3.25;0.90;;;;;;;6.70;100.00;100136.75;6261704;28;20049;-68
2023/03/26 04:46:03;;;;;;;1.30;0.50;;;;;;;6.71;100.00;100136.69;6263653;28;20053;-68
2023/03/26 04:49:05;;;;;;;3.10;1.08;;;;;;;6.68;100.00;100131.63;6264590;28;20051;-68
2023/03/26 04:52:06;;;;;;;0.95;0.43;;;;;;;6.56;100.00;100127.81;6266485;28;20048;-68
2023/03/26 04:55:19;;;;;;;5.32;0.80;;;;;;;6.55;100.00;100128.75;6266514;28;20048;-68
2023/03/26 04:58:31;;;;;;;1.77;0.45;;;;;;;6.60;100.00;100121.53;6278122;28;20051;-68
2023/03/26 05:01:36;;;;;;;6.70;1.00;;;;;;;6.59;100.00;100132.91;6271671;28;20037;-68
2023/03/26 05:04:39;;;;;;;0.93;0.57;;;;;;;6.59;100.00;100126.84;6268824;28;20155;-68
2023/03/26 05:07:41;;;;;;;6.10;0.80;;;;;;;6.56;100.00;100112.16;6270513;28;20131;-69
2023/03/26 05:10:42;;;;;;;0.60;0.60;;;;;;;6.54;100.00;100124.44;6269582;28;20346;-68
2023/03/26 05:13:45;;;;;;;4.22;0.70;;;;;;;6.64;100.00;100131.84;6277695;28;20045;-68
2023/03/26 05:16:49;;;;;;;3.42;0.75;;;;;;;6.72;100.00;100141.00;6277404;28;20072;-68
2023/03/26 05:19:50;;;;;;;4.13;1.02;;;;;;;6.65;100.00;100134.38;6277395;28;20373;-68
2023/03/26 05:22:52;;;;;;;3.65;0.70;;;;;;;6.61;100.00;100132.81;6277636;28;20052;-68
2023/03/26 05:25:54;;;;;;;2.05;0.85;;;;;;;6.61;100.00;100132.81;6276908;28;20060;-68
2023/03/26 05:28:56;;;;;;;1.83;0.68;;;;;;;6.59;100.00;100132.06;6267752;28;20358;-68
2023/03/26 05:31:58;;;;;;;0.95;0.80;;;;;;;6.60;100.00;100137.19;6270881;28;20045;-68
2023/03/26 05:34:59;;;;;;;2.03;0.90;;;;;;;6.67;100.00;100129.06;6267415;28;20552;-68
2023/03/26 05:38:01;;;;;;;1.92;0.88;;;;;;;6.66;100.00;100133.44;6274576;28;20064;-68
2023/03/26 05:41:05;;;;;;;0.75;0.60;;;;;;;6.69;100.00;100135.06;6270963;28;20460;-68
2023/03/26 05:44:07;;;;;;;1.73;0.75;;;;;;;6.78;100.00;100132.03;6267821;28;20041;-68
2023/03/26 05:47:09;;;;;;;2.85;0.90;;;;;;;6.76;100.00;100139.06;6272336;28;20071;-68
2023/03/26 05:50:11;;;;;;;3.00;0.70;;;;;;;6.76;100.00;100133.84;6272239;28;20110;-68
2023/03/26 05:53:12;;;;;;;2.63;1.30;;;;;;;6.76;100.00;100134.69;6276726;28;20052;-68
2023/03/26 05:56:14;;;;;;;4.35;0.77;;;;;;;6.75;100.00;100135.63;6277035;28;20053;-68
2023/03/26 05:59:16;;;;;;;2.25;1.25;;;;;;;6.78;100.00;100139.88;6276540;28;20159;-68
2023/03/26 06:02:18;;;;;;;2.83;1.10;;;;;;;6.70;100.00;100136.75;6276675;28;20048;-68
2023/03/26 06:05:19;;;;;;;4.93;1.30;;;;;;;6.74;100.00;100125.25;6276505;28;20056;-68
2023/03/26 06:08:20;;;;;;;4.82;0.88;;;;;;;6.71;100.00;100131.47;6276506;28;20056;-68
2023/03/26 06:11:22;;;;;;;4.95;1.00;;;;;;;6.77;100.00;100130.34;6276279;28;20041;-68
2023/03/26 06:14:24;;;;;;;2.60;1.85;;;;;;;6.87;100.00;100134.22;6268448;28;20389;-68
2023/03/26 06:17:26;;;;;;;2.63;0.95;;;;;;;6.82;100.00;100123.97;6275818;28;20053;-68
2023/03/26 06:20:27;;;;;;;9.60;1.38;;;;;;;6.85;100.00;100122.97;6276090;28;20441;-68
2023/03/26 06:23:28;;;;;;;3.83;1.20;;;;;;;6.89;100.00;100121.91;6266275;28;20052;-68
2023/03/26 06:26:30;;;;;;;1.42;0.93;;;;;;;6.86;100.00;100117.69;6268813;28;20364;-68
2023/03/26 06:29:32;;;;;;;2.15;0.80;;;;;;;6.90;100.00;100120.13;6264941;28;20045;-68
2023/03/26 06:32:34;;;;;;;9.93;1.17;;;;;;;6.80;100.00;100122.34;6274419;28;20445;-68
2023/03/26 06:35:35;;;;;;;2.30;0.90;;;;;;;6.90;100.00;100117.53;6276360;28;20049;-68
2023/03/26 06:38:36;;;;;;;2.97;1.05;;;;;;;6.92;100.00;100121.75;6264994;28;20049;-68
2023/03/26 06:41:38;;;;;;;5.22;1.30;;;;;;;6.90;100.00;100120.97;6274915;28;20044;-68
2023/03/26 06:44:40;;;;;;;4.63;1.60;;;;;;;6.95;100.00;100128.59;6275576;28;20045;-68
2023/03/26 06:47:42;;;;;;;9.32;1.27;;;;;;;6.96;100.00;100128.53;6275124;28;20052;-68
2023/03/26 06:50:43;;;;;;;4.80;0.90;;;;;;;6.97;100.00;100119.78;6275608;28;20045;-70
2023/03/26 06:53:44;;;;;;;4.30;1.05;;;;;;;6.97;100.00;100124.16;6267157;28;20360;-69
2023/03/26 06:56:46;;;;;;;7.70;1.27;;;;;;;6.88;100.00;100130.66;6275392;28;20040;-68
2023/03/26 06:59:48;;;;;;;2.58;1.05;;;;;;;6.86;100.00;100125.53;6275515;28;20041;-68
2023/03/26 07:02:50;;;;;;;3.00;1.20;;;;;;;6.82;100.00;100130.97;6275083;28;20053;-68
2023/03/26 07:05:51;;;;;;;5.68;1.75;;;;;;;6.76;100.00;100126.03;6274079;28;20056;-68
2023/03/26 07:08:54;;;;;;;5.95;1.20;;;;;;;6.76;100.00;100129.47;6274742;28;20060;-67
2023/03/26 07:11:56;;;;;;;6.15;1.10;;;;;;;6.75;100.00;100122.56;6274207;28;20404;-68
2023/03/26 07:15:00;;;;;;;4.15;1.05;;;;;;;6.58;100.00;100117.28;6274865;28;20170;-68
2023/03/26 07:18:01;;;;;;;11.68;1.42;;;;;;;6.66;100.00;100117.78;6274119;28;20064;-68
2023/03/26 07:21:03;;;;;;;2.13;1.20;;;;;;;6.67;100.00;100108.19;6275097;28;20049;-68
2023/03/26 07:24:05;;;;;;;2.80;1.10;;;;;;;6.64;100.00;100103.97;6274929;28;20081;-69
2023/03/26 07:27:15;;;;;;;4.95;1.25;;;;;;;6.75;100.00;100100.84;6274743;28;20048;-68
2023/03/26 07:30:24;;;;;;;5.35;1.63;;;;;;;6.75;100.00;100106.06;6274896;28;20049;-68
2023/03/26 07:33:31;;;;;;;10.95;1.15;;;;;;;6.78;100.00;100098.09;6275033;28;20044;-69
2023/03/26 07:36:35;;;;;;;3.50;1.38;;;;;;;6.84;100.00;100097.78;6274742;28;20056;-68
2023/03/26 07:39:44;;;;;;;2.20;1.05;;;;;;;6.98;100.00;100091.88;6274555;28;20049;-68
2023/03/26 07:42:58;;;;;;;3.70;1.52;;;;;;;7.04;100.00;100087.22;6271845;28;20045;-68
2023/03/26 07:46:01;;;;;;;8.15;1.42;;;;;;;7.00;100.00;100087.44;6269827;28;20045;-68
2023/03/26 07:49:04;;;;;;;12.43;1.48;;;;;;;7.04;100.00;100082.00;6269576;28;20345;-68
2023/03/26 07:52:05;;;;;;;4.35;1.30;;;;;;;7.19;100.00;100082.16;6273316;28;20049;-68
2023/03/26 07:55:12;;;;;;;6.75;1.40;;;;;;;7.21;100.00;100080.28;6273417;28;20441;-68
2023/03/26 07:58:27;;;;;;;2.15;1.30;;;;;;;7.20;100.00;100078.59;6270019;28;20045;-68
2023/03/26 08:01:45;;;;;;;9.75;1.40;;;;;;;7.18;100.00;100073.47;6274490;28;20052;-68
2023/03/26 08:05:09;;;;;;;8.15;1.33;;;;;;;7.27;100.00;100080.84;6273163;28;20044;-69
2023/03/26 08:08:19;;;;;;;4.00;1.38;;;;;;;7.30;100.00;100079.81;6274338;28;20452;-68
2023/03/26 08:11:34;;;;;;;5.07;1.48;;;;;;;7.34;100.00;100083.97;6269949;28;20044;-68
2023/03/26 08:14:47;;;;;;;4.03;1.27;;;;;;;7.35;100.00;100075.22;6266287;28;20051;-68
2023/03/26 08:17:53;;;;;;;4.97;0.95;;;;;;;7.42;100.00;100081.81;6265686;28;20380;-68
2023/03/26 08:21:00;;;;;;;6.50;1.15;;;;;;;7.46;100.00;100075.53;6267244;28;20049;-68
2023/03/26 08:24:08;;;;;;;5.78;1.30;;;;;;;7.48;100.00;100075.44;6274175;28;20041;-68
2023/03/26 08:27:20;;;;;;;3.28;0.95;;;;;;;7.52;100.00;100066.50;6273911;28;20359;-68
2023/03/26 08:30:24;;;;;;;5.90;1.33;;;;;;;7.63;100.00;100074.66;6275619;28;20548;-68
2023/03/26 08:33:28;;;;;;;5.93;1.00;;;;;;;7.64;100.00;100084.19;6278455;28;20041;-69
2023/03/26 08:36:29;;;;;;;9.15;1.70;;;;;;;7.66;100.00;100082.31;6278604;28;20049;-68
2023/03/26 08:39:30;;;;;;;3.13;1.10;;;;;;;7.68;100.00;100080.50;6278593;28;20045;-68
2023/03/26 08:42:54;;;;;;;12.65;1.40;;;;;;;7.66;100.00;100074.47;6274122;28;20417;-68
2023/03/26 08:46:17;;;;;;;5.45;1.33;;;;;;;7.72;100.00;100076.78;6268969;28;20088;-68
2023/03/26 08:49:45;;;;;;;4.03;1.27;;;;;;;7.69;100.00;100076.09;6278025;28;20056;-69
2023/03/26 08:53:11;;;;;;;2.03;0.70;;;;;;;7.77;100.00;100076.56;6278165;28;20445;-68
2023/03/26 08:56:24;;;;;;;1.00;0.80;;;;;;;7.84;100.00;100078.75;6273703;28;20049;-68
2023/03/26 09:00:04;;;;;;;3.25;1.40;;;;;;;7.89;100.00;100081.13;6278329;28;20134;-68
2023/03/26 09:03:35;;;;;;;2.00;0.95;;;;;;;7.93;100.00;100084.44;6278156;28;20465;-68
2023/03/26 09:07:06;;;;;;;4.60;1.05;;;;;;;8.00;100.00;100076.19;6276239;28;20448;-68
2023/03/26 09:10:41;;;;;;;9.82;1.08;;;;;;;8.01;100.00;100082.25;6258003;28;20045;-68
2023/03/26 09:14:07;;;;;;;4.22;1.40;;;;;;;8.07;100.00;100080.13;6262560;28;20041;-68
2023/03/26 09:17:39;;;;;;;7.38;1.30;;;;;;;8.22;100.00;100075.88;6268869;28;20071;-68
2023/03/26 09:21:20;;;;;;;11.65;1.52;;;;;;;8.28;100.00;100078.16;6263060;28;20049;-68
2023/03/26 09:24:57;;;;;;;1.98;1.17;;;;;;;8.26;100.00;100079.97;6274327;28;20043;-69
2023/03/26 09:28:40;;;;;;;1.65;1.23;;;;;;;8.19;100.00;100075.19;6265527;28;20060;-69
2023/03/26 09:32:10;;;;;;;6.70;1.77;;;;;;;8.21;100.00;100062.84;6265828;28;20057;-69
2023/03/26 09:35:37;;;;;;;5.88;1.38;;;;;;;8.12;100.00;100067.66;6271179;28;20056;-70
2023/03/26 09:38:44;;;;;;;2.83;1.20;;;;;;;8.31;100.00;100066.66;6275929;28;20052;-69
2023/03/26 09:41:57;;;;;;;9.43;1.92;;;;;;;8.33;100.00;100064.81;6275400;28;20055;-70
2023/03/26 09:45:19;;;;;;;6.05;1.40;;;;;;;8.31;100.00;100070.13;6273360;28;20056;-69
2023/03/26 09:48:44;;;;;;;5.07;2.25;;;;;;;8.47;100.00;100066.69;6272772;28;20052;-70
2023/03/26 09:52:03;;;;;;;5.22;1.63;;;;;;;8.48;100.00;100060.50;6271865;28;20055;-70
2023/03/26 09:55:22;;;;;;;5.63;1.25;;;;;;;8.51;100.00;100062.97;6276508;28;20045;-70
2023/03/26 09:58:42;;;;;;;3.70;1.63;;;;;;;8.37;100.00;100054.09;6276458;28;20048;-69
2023/03/26 10:01:49;;;;;;;12.27;3.00;;;;;;;8.42;100.00;100055.63;6268415;28;20049;-69
2023/03/26 10:05:18;;;;;;;16.00;1.98;;;;;;;8.47;100.00;100062.28;6260495;28;20490;-69
2023/03/26 10:08:50;;;;;;;6.53;2.00;;;;;;;8.65;100.00;100049.94;6271685;28;20050;-69
2023/03/26 10:12:04;;;;;;;8.00;2.17;;;;;;;8.68;100.00;100057.66;6268513;28;20052;-70
2023/03/26 10:15:21;;;;;;;5.55;1.50;;;;;;;8.64;100.00;100058.75;6276407;28;20048;-70
2023/03/26 10:18:36;;;;;;;3.90;1.20;;;;;;;8.51;100.00;100058.56;6271436;28;20049;-69
2023/03/26 10:21:45;;;;;;;5.90;1.20;;;;;;;8.42;100.00;100061.72;6268370;28;20045;-70
2023/03/26 10:25:10;;;;;;;4.25;1.75;;;;;;;8.42;100.00;100059.09;6263905;28;20048;-69
2023/03/26 10:28:33;;;;;;;4.90;2.00;;;;;;;8.46;100.00;100060.63;6264895;28;20048;-70
2023/03/26 10:31:47;;;;;;;3.97;1.20;;;;;;;8.52;100.00;100070.75;6275743;28;20045;-72
2023/03/26 10:35:03;;;;;;;5.45;1.00;;;;;;;8.39;100.00;100067.94;6273196;28;20045;-68
2023/03/26 10:38:22;;;;;;;4.22;1.05;;;;;;;8.32;100.00;100060.50;6262640;28;20053;-69
2023/03/26 10:41:33;;;;;;;4.35;1.55;;;;;;;8.37;100.00;100059.34;6263245;28;20049;-69
2023/03/26 10:44:59;;;;;;;6.03;1.60;;;;;;;8.41;100.00;100057.41;6270487;28;20036;-69
2023/03/26 10:48:16;;;;;;;4.43;1.38;;;;;;;8.55;100.00;100056.63;6274092;28;20107;-69
2023/03/26 10:51:36;;;;;;;7.03;2.22;;;;;;;8.53;100.00;100053.25;6272680;28;20051;-69
2023/03/26 10:54:43;;;;;;;;;;;;;;;8.49;100.00;100055.19;6274689;28;20054;-69
2023/03/26 10:57:49;;;;;;;9.65;1.25;;;;;;;8.63;100.00;100054.44;6274978;28;19924;-69
2023/03/26 11:00:56;;;;;;;7.10;1.88;;;;;;;8.79;100.00;100057.03;6272285;28;20085;-68
2023/03/26 11:04:09;;;;;;;2.20;1.23;;;;;;;8.96;100.00;100053.44;6275160;28;20453;-68
2023/03/26 11:07:20;;;;;;;5.57;1.25;;;;;;;8.95;100.00;100063.09;6274924;28;20051;-69
2023/03/26 11:10:30;;;;;;;6.25;1.92;;;;;;;8.86;100.00;100061.84;6274997;28;20048;-69
2023/03/26 11:13:45;;;;;;;13.82;4.60;;;;;;;8.90;100.00;100062.47;6275318;28;20049;-69
2023/03/26 11:16:58;;;;;;;6.10;1.90;;;;;;;8.68;100.00;100065.50;6275198;28;20056;-69
2023/03/26 11:20:07;;;;;;;6.38;1.52;;;;;;;8.67;100.00;100063.78;6274963;28;20441;-69
2023/03/26 11:23:33;;;;;;;6.70;1.30;;;;;;;8.64;100.00;100058.75;6275312;28;20460;-69
2023/03/26 11:26:47;;;;;;;8.23;2.42;;;;;;;8.64;100.00;100062.19;6274752;28;20045;-69
2023/03/26 11:30:02;;;;;;;9.73;4.07;;;;;;;8.75;100.00;100066.81;6275132;28;20060;-69
2023/03/26 11:33:06;;;;;;;9.25;1.83;;;;;;;8.86;100.00;100058.38;6274999;28;20052;-69
2023/03/26 11:36:13;;;;;;;7.82;1.67;;;;;;;8.63;100.00;100060.53;6274723;28;20345;-69
2023/03/26 11:39:21;;;;;;;14.02;3.42;;;;;;;8.76;100.00;100052.78;6274851;28;20045;-68
2023/03/26 11:42:24;;;;;;;19.25;3.53;;;;;;;8.91;100.00;100058.09;6274920;28;20041;-69
2023/03/26 11:45:29;;;;;;;4.20;1.52;;;;;;;8.76;100.00;100065.03;6274595;28;20048;-69
2023/03/26 11:48:35;;;;;;;2.97;1.35;;;;;;;8.79;100.00;100054.41;6274473;28;20076;-69
2023/03/26 11:51:40;;;;;;;12.40;5.03;;;;;;;8.79;100.00;100054.41;6274324;28;20457;-69
2023/03/26 11:54:42;;;;;;;1.70;1.40;;;;;;;8.93;100.00;100056.22;6273855;28;20107;-69
2023/03/26 11:57:50;;;;;;;5.28;2.15;;;;;;;9.02;100.00;100050.47;6273850;28;20045;-69
2023/03/26 12:00:53;;;;;;;25.38;5.75;;;;;;;9.10;100.00;100051.69;6273240;28;20045;-69
2023/03/26 12:04:02;;;;;;;7.70;1.73;;;;;;;9.03;100.00;100045.13;6274621;28;20056;-69
2023/03/26 12:07:15;;;;;;;2.67;1.70;;;;;;;9.11;100.00;100048.13;6279060;28;20041;-69
2023/03/26 12:10:38;;;;;;;9.48;2.05;;;;;;;8.84;100.00;100053.19;6279170;28;20202;-71
2023/03/26 12:13:42;;;;;;;10.32;2.47;;;;;;;8.78;100.00;100055.34;6274733;28;20049;-69
2023/03/26 12:16:57;;;;;;;5.13;1.50;;;;;;;8.73;100.00;100055.59;6278865;28;20463;-69
2023/03/26 12:19:59;;;;;;;3.00;1.90;;;;;;;8.69;100.00;100053.25;6278853;28;20071;-69
2023/03/26 12:23:05;;;;;;;5.25;1.48;;;;;;;8.68;100.00;100056.81;6278506;28;20040;-69
2023/03/26 12:26:17;;;;;;;8.60;1.90;;;;;;;8.68;100.00;100052.41;6278568;28;20107;-69
2023/03/26 12:29:19;;;;;;;7.45;1.45;;;;;;;8.66;100.00;100050.78;6278269;28;20060;-69
2023/03/26 12:32:22;;;;;;;8.07;3.13;;;;;;;8.59;100.00;100055.53;6278558;28;20456;-69
2023/03/26 12:35:28;;;;;;;5.03;1.55;;;;;;;8.62;100.00;100052.72;6278004;28;20400;-69
2023/03/26 12:38:33;;;;;;;2.85;1.25;;;;;;;8.54;100.00;100047.06;6278458;28;20119;-69
2023/03/26 12:41:36;;;;;;;5.28;1.67;;;;;;;8.58;100.00;100049.47;6278076;28;20055;-69
2023/03/26 12:44:45;;;;;;;5.97;1.25;;;;;;;8.60;100.00;100058.06;6278038;28;20225;-69
2023/03/26 12:47:46;;;;;;;9.18;2.35;;;;;;;8.71;100.00;100060.06;6277214;28;20041;-69
2023/03/26 12:51:00;;;;;;;5.35;1.50;;;;;;;8.58;100.00;100062.56;6277666;28;20056;-69
2023/03/26 12:54:22;;;;;;;5.13;1.85;;;;;;;8.63;100.00;100067.53;6278393;28;20053;-69
2023/03/26 12:57:29;;;;;;;2.90;1.10;;;;;;;8.69;100.00;100067.19;6277998;28;20334;-69
2023/03/26 13:00:49;;;;;;;3.92;1.45;;;;;;;8.68;100.00;100059.41;6277831;28;20044;-69
2023/03/26 13:04:18;;;;;;;6.78;1.45;;;;;;;8.61;100.00;100057.13;6278184;28;20357;-69
2023/03/26 13:07:24;;;;;;;;;;;;;;;8.70;100.00;100050.53;6278312;28;20049;-75
2023/03/26 13:10:49;;;;;;;5.85;1.45;;;;;;;8.85;100.00;100041.78;6274443;28;19928;-69
2023/03/26 13:14:03;;;;;;;8.80;2.08;;;;;;;8.95;100.00;100043.88;6275271;28;20081;-69
2023/03/26 13:17:13;;;;;;;9.00;1.30;;;;;;;9.18;100.00;100038.16;6265236;28;20045;-69
2023/03/26 13:20:22;;;;;;;24.10;6.75;;;;;;;9.32;100.00;100047.81;6271827;28;20057;-69
2023/03/26 13:23:35;;;;;;;10.55;1.45;;;;;;;9.35;100.00;100045.84;6271005;28;20060;-69
2023/03/26 13:26:57;;;;;;;2.92;1.30;;;;;;;9.35;100.00;100037.97;6273905;28;20052;-69
2023/03/26 13:30:07;;;;;;;7.20;2.05;;;;;;;9.43;100.00;100042.78;6281181;28;20045;-69
2023/03/26 13:33:38;;;;;;;5.30;1.38;;;;;;;9.30;100.00;100047.06;6277345;28;20049;-69
2023/03/26 13:36:51;;;;;;;7.25;1.60;;;;;;;9.21;100.00;100042.34;6277356;28;20049;-69
2023/03/26 13:40:03;;;;;;;9.35;1.35;;;;;;;9.36;100.00;100038.84;6277250;28;20055;-69
2023/03/26 13:43:28;;;;;;;3.50;1.33;;;;;;;9.36;100.00;100049.34;6277126;28;20350;-68
2023/03/26 13:46:34;;;;;;;4.78;1.17;;;;;;;9.42;100.00;100040.25;6269391;28;20421;-69
2023/03/26 13:49:40;;;;;;;3.80;1.30;;;;;;;9.58;100.00;100034.00;6277249;28;20064;-69
2023/03/26 13:52:45;;;;;;;3.80;1.48;;;;;;;9.40;100.00;100035.94;6276934;28;20052;-68
2023/03/26 13:55:50;;;;;;;4.13;1.20;;;;;;;9.23;100.00;100028.25;6275104;28;20437;-69
2023/03/26 13:58:59;;;;;;;5.30;0.95;;;;;;;9.36;100.00;100029.19;6280291;28;20045;-68
2023/03/26 14:02:07;;;;;;;5.65;2.70;;;;;;;9.62;100.00;100024.13;6276494;28;20475;-68
2023/03/26 14:05:14;;;;;;;10.27;2.80;;;;;;;9.81;100.00;100029.09;6278106;28;20041;-69
2023/03/26 14:08:22;;;;;;;5.82;2.67;;;;;;;9.94;100.00;100035.28;6275965;28;20056;-68
2023/03/26 14:11:38;;;;;;;5.22;2.05;;;;;;;10.09;100.00;100033.50;6276874;28;20051;-69
2023/03/26 14:14:48;;;;;;;4.53;1.40;;;;;;;10.11;100.00;100036.84;6276309;28;20048;-71
2023/03/26 14:17:55;;;;;;;5.05;2.05;;;;;;;10.02;100.00;100034.81;6270619;28;20346;-68
2023/03/26 14:21:35;;;;;;;5.43;1.40;;;;;;;10.00;96.41;100036.69;6274046;28;20041;-68
2023/03/26 14:25:07;;;;;;;8.25;1.42;;;;;;;10.38;100.00;100040.38;6244206;28;20060;-69
2023/03/26 14:28:28;;;;;;;7.93;1.52;;;;;;;10.22;100.00;100039.66;6267442;28;20448;-69
2023/03/26 14:31:38;;;;;;;10.27;1.52;;;;;;;9.84;98.38;100044.66;6274792;28;20075;-69
2023/03/26 14:34:57;;;;;;;8.20;1.92;;;;;;;9.62;100.00;100037.25;6274814;28;20048;-69